Edenburg, Pennsylvania
Current Conditions -  °F | °C
As of 7:54 PM on Saturday 22 Nov 2014 (Local Time) from KRDG Reporting Station
Overcast Overcast  
Wind Chill: 38°   Ceiling: 7500
Heat Index: 41°   Visibility: 10mi
Dew Point: 21°   Wind: 5mph
Humidity: 45%   Direction: 210°SSW
Pressure: 30.25"   Gusts: NA
Location:  40.5494°N, 75.999°W
Report Text: KRDG 230054Z AUTO 21004KT 10SM OVC075 05/M06 A3025 RMK AO2 SLP253 T00501061
Loading
Personal Weather Stations






























Interactive Weather Map New forecast layout! Learn more

10-Day Weather Forecast

Advertisements
Track Severe Weather on mobile